createdAt,value
2023-05-16T00:01:55.623Z,15.30
2023-05-16T00:04:53.960Z,16.45
2023-05-16T00:07:51.911Z,15.27
2023-05-16T00:10:49.846Z,14.85
2023-05-16T00:13:48.454Z,15.25
2023-05-16T00:16:47.935Z,13.13
2023-05-16T00:19:48.092Z,13.68
2023-05-16T00:22:46.758Z,14.15
2023-05-16T00:25:45.148Z,13.02
2023-05-16T00:28:43.070Z,13.98
2023-05-16T00:31:41.113Z,14.10
2023-05-16T00:34:39.172Z,16.77
2023-05-16T00:37:37.777Z,15.13
2023-05-16T00:40:35.659Z,17.05
2023-05-16T00:43:33.571Z,16.77
2023-05-16T00:46:31.434Z,16.80
2023-05-16T00:49:30.257Z,17.25
2023-05-16T00:52:28.386Z,19.23
2023-05-16T00:55:27.127Z,18.73
2023-05-16T00:58:26.150Z,18.38
2023-05-16T01:01:26.613Z,15.80
2023-05-16T01:04:25.323Z,16.63
2023-05-16T01:07:23.591Z,19.95
2023-05-16T01:10:21.758Z,19.55
2023-05-16T01:13:42.781Z,23.33
2023-05-16T01:16:45.370Z,20.75
2023-05-16T01:19:58.202Z,20.08
2023-05-16T01:22:56.073Z,22.60
2023-05-16T01:26:28.631Z,17.90
2023-05-16T01:29:27.013Z,20.23
2023-05-16T01:32:25.323Z,19.95
2023-05-16T01:35:23.424Z,19.52
2023-05-16T01:38:31.446Z,18.38
2023-05-16T01:41:43.298Z,17.55
2023-05-16T01:45:22.828Z,18.02
2023-05-16T01:48:27.908Z,17.52
2023-05-16T01:51:31.274Z,21.13
2023-05-16T01:54:34.097Z,23.02
2023-05-16T01:57:32.580Z,20.58
2023-05-16T02:00:30.363Z,19.40
2023-05-16T02:03:28.575Z,28.63
2023-05-16T02:06:27.128Z,23.65
2023-05-16T02:09:26.641Z,22.77
2023-05-16T02:12:25.297Z,20.67
2023-05-16T02:15:23.208Z,19.75
2023-05-16T02:18:21.055Z,20.63
2023-05-16T02:21:18.973Z,21.63
2023-05-16T02:24:16.941Z,22.70
2023-05-16T02:27:14.873Z,25.40
2023-05-16T02:30:13.218Z,20.25
2023-05-16T02:33:12.095Z,22.52
2023-05-16T02:36:10.419Z,23.45
2023-05-16T02:39:10.481Z,26.25
2023-05-16T02:42:08.988Z,23.10
2023-05-16T02:45:07.231Z,22.25
2023-05-16T02:48:05.365Z,17.42
2023-05-16T02:51:03.258Z,23.98
2023-05-16T02:54:01.808Z,22.10
2023-05-16T02:56:59.627Z,16.83
2023-05-16T02:59:57.541Z,18.92
2023-05-16T03:02:55.419Z,19.02
2023-05-16T03:05:53.833Z,18.80
2023-05-16T03:08:51.693Z,17.83
2023-05-16T03:11:49.676Z,18.00
2023-05-16T03:14:47.522Z,20.83
2023-05-16T03:17:45.488Z,21.55
2023-05-16T03:20:43.386Z,21.70
2023-05-16T03:23:43.095Z,22.95
2023-05-16T03:26:41.140Z,21.20
2023-05-16T03:29:39.083Z,18.33
2023-05-16T03:32:37.061Z,21.67
2023-05-16T03:35:36.310Z,24.65
2023-05-16T03:38:34.313Z,20.00
2023-05-16T03:41:32.134Z,26.88
2023-05-16T03:44:30.225Z,26.85
2023-05-16T03:47:31.812Z,20.48
2023-05-16T03:50:29.663Z,17.67
2023-05-16T03:53:27.807Z,24.27
2023-05-16T03:56:25.881Z,21.63
2023-05-16T03:59:23.670Z,24.67
2023-05-16T04:02:21.654Z,24.77
2023-05-16T04:05:19.594Z,29.77
2023-05-16T04:08:17.516Z,32.00
2023-05-16T04:11:15.372Z,24.75
2023-05-16T04:14:13.284Z,23.55
2023-05-16T04:17:11.451Z,22.85
2023-05-16T04:20:09.773Z,31.85
2023-05-16T04:23:07.618Z,21.65
2023-05-16T04:26:05.682Z,20.10
2023-05-16T04:29:03.707Z,26.98
2023-05-16T04:32:01.819Z,23.02
2023-05-16T04:34:59.712Z,22.13
2023-05-16T04:37:57.710Z,30.15
2023-05-16T04:40:55.632Z,20.00
2023-05-16T04:43:54.093Z,29.63
2023-05-16T04:46:52.240Z,29.48
2023-05-16T04:49:50.206Z,23.45
2023-05-16T04:52:48.102Z,28.38
2023-05-16T04:55:46.193Z,29.80
2023-05-16T04:58:44.139Z,23.60
2023-05-16T05:01:42.289Z,23.50
2023-05-16T05:04:40.359Z,29.38
2023-05-16T05:07:38.309Z,31.85
2023-05-16T05:10:36.359Z,20.70
2023-05-16T05:13:34.343Z,27.52
2023-05-16T05:16:32.526Z,31.80
2023-05-16T05:19:30.443Z,25.35
2023-05-16T05:22:28.463Z,26.85
2023-05-16T05:25:27.196Z,18.70
2023-05-16T05:28:25.307Z,30.98
2023-05-16T05:31:23.264Z,31.10
2023-05-16T05:34:21.590Z,27.55
2023-05-16T05:37:19.694Z,23.38
2023-05-16T05:40:17.563Z,25.63
2023-05-16T05:43:15.619Z,26.88
2023-05-16T05:46:13.462Z,30.80
2023-05-16T05:49:11.512Z,24.33
2023-05-16T05:52:09.446Z,31.05
2023-05-16T05:55:07.892Z,32.55
2023-05-16T05:58:08.963Z,34.80
2023-05-16T06:01:06.859Z,36.00
2023-05-16T06:04:04.889Z,32.80
2023-05-16T06:07:02.665Z,27.60
2023-05-16T06:10:05.166Z,25.35
2023-05-16T06:16:01.118Z,28.17
2023-05-16T06:18:59.034Z,34.83
2023-05-16T06:21:57.365Z,28.40
2023-05-16T06:24:55.313Z,29.38
2023-05-16T06:27:53.197Z,36.35
2023-05-16T06:30:52.923Z,30.17
2023-05-16T06:33:51.429Z,36.97
2023-05-16T06:36:49.250Z,40.20
2023-05-16T06:39:48.485Z,33.20
2023-05-16T06:42:46.386Z,32.22
2023-05-16T06:45:47.359Z,39.80
2023-05-16T06:48:45.419Z,41.65
2023-05-16T06:51:43.356Z,39.50
2023-05-16T06:54:41.533Z,41.92
2023-05-16T06:57:39.548Z,34.00
2023-05-16T07:00:37.487Z,35.42
2023-05-16T07:03:36.020Z,40.03
2023-05-16T07:06:34.083Z,37.17
2023-05-16T07:09:32.201Z,34.75
2023-05-16T07:12:30.897Z,40.47
2023-05-16T07:15:32.198Z,35.95
2023-05-16T07:18:30.234Z,38.50
2023-05-16T07:21:28.559Z,46.25
2023-05-16T07:24:26.692Z,35.92
2023-05-16T07:27:24.698Z,45.90
2023-05-16T07:30:22.752Z,30.40
2023-05-16T07:33:20.630Z,34.97
2023-05-16T07:36:18.606Z,34.88
2023-05-16T07:39:17.477Z,37.67
2023-05-16T07:42:16.333Z,36.60
2023-05-16T07:45:14.236Z,44.15
2023-05-16T07:48:12.430Z,38.63
2023-05-16T07:51:10.408Z,45.03
2023-05-16T07:54:09.187Z,41.65
2023-05-16T07:57:07.916Z,42.47
2023-05-16T08:00:06.423Z,36.10
2023-05-16T08:03:04.780Z,29.13
2023-05-16T08:06:03.003Z,37.63
2023-05-16T08:09:01.519Z,35.20
2023-05-16T08:12:04.207Z,40.33
2023-05-16T08:15:02.353Z,30.83
2023-05-16T08:18:00.503Z,28.10
2023-05-16T08:20:58.579Z,35.80
2023-05-16T08:23:56.595Z,38.00
2023-05-16T08:26:54.606Z,41.22
2023-05-16T08:29:52.420Z,36.97
2023-05-16T08:32:50.426Z,38.28
2023-05-16T08:35:50.151Z,28.85
2023-05-16T08:38:48.701Z,28.98
2023-05-16T08:41:47.025Z,34.42
2023-05-16T08:44:44.906Z,29.55
2023-05-16T08:47:44.948Z,35.25
2023-05-16T08:50:44.676Z,30.58
2023-05-16T08:54:04.042Z,25.65
2023-05-16T08:57:03.511Z,23.95
2023-05-16T09:00:01.888Z,22.67
2023-05-16T09:03:00.776Z,21.88
2023-05-16T09:05:58.922Z,17.60
2023-05-16T09:08:57.152Z,24.48
2023-05-16T09:11:55.276Z,19.17
2023-05-16T09:14:56.853Z,20.50
2023-05-16T09:17:54.897Z,20.80
2023-05-16T09:20:54.579Z,21.92
2023-05-16T09:23:53.219Z,25.45
2023-05-16T09:26:53.269Z,23.10
2023-05-16T09:29:52.684Z,19.75
2023-05-16T09:32:54.288Z,22.25
2023-05-16T09:36:01.918Z,23.50
2023-05-16T09:39:00.061Z,26.35
2023-05-16T09:42:00.206Z,27.92
2023-05-16T09:44:58.468Z,32.88
2023-05-16T09:48:02.600Z,26.92
2023-05-16T09:51:04.833Z,32.13
2023-05-16T09:54:02.822Z,28.42
2023-05-16T09:57:03.002Z,34.40
2023-05-16T10:00:06.639Z,30.50
2023-05-16T10:03:05.670Z,32.97
2023-05-16T10:06:06.263Z,33.10
2023-05-16T10:09:04.746Z,42.95
2023-05-16T10:12:05.014Z,37.45
2023-05-16T10:15:04.739Z,26.20
2023-05-16T10:18:05.060Z,23.27
2023-05-16T10:21:09.654Z,45.38
2023-05-16T10:24:13.898Z,25.38
2023-05-16T10:27:13.082Z,25.83
2023-05-16T10:30:12.316Z,24.88
2023-05-16T10:33:17.326Z,24.02
2023-05-16T10:36:16.990Z,28.25
2023-05-16T10:39:16.119Z,26.08
2023-05-16T10:42:18.876Z,35.42
2023-05-16T10:45:21.369Z,40.17
2023-05-16T10:48:36.886Z,39.50
2023-05-16T10:51:39.468Z,39.28
2023-05-16T10:54:43.395Z,43.83
2023-05-16T10:57:45.188Z,39.63
2023-05-16T11:00:43.040Z,41.47
2023-05-16T11:04:01.006Z,34.00
2023-05-16T11:06:59.622Z,38.53
2023-05-16T11:10:12.224Z,38.42
2023-05-16T11:13:10.716Z,38.15
2023-05-16T11:16:30.854Z,33.65
2023-05-16T11:19:41.315Z,30.13
2023-05-16T11:22:42.614Z,40.35
2023-05-16T11:25:41.972Z,33.88
2023-05-16T11:28:40.230Z,37.83
2023-05-16T11:31:38.539Z,34.00
2023-05-16T11:34:40.579Z,34.03
2023-05-16T11:37:40.090Z,32.58
2023-05-16T11:40:38.127Z,28.45
2023-05-16T11:43:44.161Z,33.63
2023-05-16T11:46:42.404Z,35.65
2023-05-16T11:49:43.229Z,29.92
2023-05-16T11:52:44.695Z,40.83
2023-05-16T11:55:43.059Z,42.55
2023-05-16T11:58:41.656Z,34.42
2023-05-16T12:01:40.862Z,40.40
2023-05-16T12:04:39.385Z,35.50
2023-05-16T12:07:38.919Z,34.33
2023-05-16T12:10:37.531Z,35.90
2023-05-16T12:13:36.108Z,43.55
2023-05-16T12:16:35.095Z,29.13
2023-05-16T12:19:33.287Z,28.40
2023-05-16T12:22:31.821Z,24.85
2023-05-16T12:25:36.277Z,24.02
2023-05-16T12:28:36.148Z,32.10
2023-05-16T12:31:38.759Z,34.15
2023-05-16T12:37:34.392Z,36.80
2023-05-16T12:40:32.628Z,31.70
2023-05-16T12:43:30.924Z,44.03
2023-05-16T12:46:31.992Z,41.03
2023-05-16T12:49:30.049Z,40.63
2023-05-16T12:52:30.323Z,36.75
2023-05-16T12:55:28.337Z,32.33
2023-05-16T12:58:26.999Z,38.38
2023-05-16T13:01:25.164Z,27.33
2023-05-16T13:04:24.307Z,29.27
2023-05-16T13:07:22.500Z,27.65
2023-05-16T13:10:20.813Z,30.58
2023-05-16T13:13:32.533Z,29.23
2023-05-16T13:16:33.878Z,36.05
2023-05-16T13:19:34.401Z,31.10
2023-05-16T13:22:32.349Z,23.08
2023-05-16T13:25:30.622Z,27.05
2023-05-16T13:28:28.648Z,23.80
2023-05-16T13:31:26.773Z,24.25
2023-05-16T13:34:24.690Z,22.98
2023-05-16T13:37:25.046Z,23.30
2023-05-16T13:40:23.118Z,22.98
2023-05-16T13:43:21.191Z,15.82
2023-05-16T13:46:19.171Z,15.13
2023-05-16T13:49:17.251Z,15.88
2023-05-16T13:52:15.444Z,15.18
2023-05-16T13:55:13.564Z,16.42
2023-05-16T13:58:11.503Z,15.20
2023-05-16T14:01:09.604Z,18.35
2023-05-16T14:04:07.685Z,13.35
2023-05-16T14:07:06.021Z,13.38
2023-05-16T14:10:04.788Z,13.00
2023-05-16T14:13:03.135Z,15.00
2023-05-16T14:16:01.197Z,16.85
2023-05-16T14:18:59.230Z,13.82
2023-05-16T14:21:57.294Z,16.52
2023-05-16T14:24:55.275Z,14.35
2023-05-16T14:27:53.324Z,13.25
2023-05-16T14:30:51.209Z,13.07
2023-05-16T14:33:49.256Z,13.75
2023-05-16T14:36:47.463Z,13.75
2023-05-16T14:39:48.844Z,14.68
2023-05-16T14:42:46.920Z,13.20
2023-05-16T14:45:45.088Z,15.02
2023-05-16T14:48:43.080Z,13.20
2023-05-16T14:51:41.112Z,12.35
2023-05-16T14:54:39.033Z,17.65
2023-05-16T14:57:37.215Z,14.27
2023-05-16T15:00:35.287Z,16.35
2023-05-16T15:03:43.319Z,14.38
2023-05-16T15:06:49.177Z,13.88
2023-05-16T15:09:47.283Z,13.55
2023-05-16T15:12:45.170Z,12.90
2023-05-16T15:15:43.437Z,12.05
2023-05-16T15:18:42.233Z,15.88
2023-05-16T15:21:43.383Z,19.17
2023-05-16T15:24:41.632Z,33.83
2023-05-16T15:27:39.686Z,20.90
2023-05-16T15:30:37.557Z,18.13
2023-05-16T15:33:35.700Z,16.38
2023-05-16T15:36:33.998Z,22.17
2023-05-16T15:39:32.471Z,19.02
2023-05-16T15:42:30.729Z,14.50
2023-05-16T15:45:29.281Z,17.00
2023-05-16T15:48:27.606Z,16.35
2023-05-16T15:51:25.759Z,15.68
2023-05-16T15:54:23.722Z,16.27
2023-05-16T15:57:22.156Z,17.35
2023-05-16T16:00:20.211Z,21.35
2023-05-16T16:03:19.245Z,15.43
2023-05-16T16:06:17.240Z,15.02
2023-05-16T16:09:16.496Z,14.13
2023-05-16T16:12:14.389Z,14.48
2023-05-16T16:15:12.664Z,12.85
2023-05-16T16:18:12.183Z,16.55
2023-05-16T16:21:12.226Z,13.98
2023-05-16T16:24:10.210Z,12.02
2023-05-16T16:27:08.273Z,13.35
2023-05-16T16:30:06.838Z,21.15
2023-05-16T16:33:05.017Z,14.63
2023-05-16T16:36:03.186Z,13.75
2023-05-16T16:39:01.961Z,17.23
2023-05-16T16:41:59.918Z,16.27
2023-05-16T16:44:58.258Z,15.40
2023-05-16T16:47:56.281Z,15.43
2023-05-16T16:50:54.697Z,16.85
2023-05-16T16:53:52.644Z,12.90
2023-05-16T16:56:51.340Z,13.00
2023-05-16T16:59:50.157Z,14.18
2023-05-16T17:02:48.315Z,16.98
2023-05-16T17:05:46.510Z,16.13
2023-05-16T17:08:44.665Z,19.48
2023-05-16T17:11:43.068Z,16.05
2023-05-16T17:14:42.990Z,16.42
2023-05-16T17:17:41.063Z,13.38
2023-05-16T17:20:39.274Z,16.70
2023-05-16T17:23:37.275Z,16.58
2023-05-16T17:26:35.580Z,15.45
2023-05-16T17:29:34.154Z,20.63
2023-05-16T17:32:32.319Z,11.00
2023-05-16T17:35:30.682Z,15.02
2023-05-16T17:38:28.987Z,15.38
2023-05-16T17:41:26.972Z,15.00
2023-05-16T17:44:25.011Z,10.93
2023-05-16T17:47:23.736Z,9.70
2023-05-16T17:50:22.632Z,11.00
2023-05-16T17:53:20.679Z,9.00
2023-05-16T17:56:19.311Z,8.77
2023-05-16T17:59:18.367Z,10.05
2023-05-16T18:02:17.358Z,11.93
2023-05-16T18:05:17.188Z,11.40
2023-05-16T18:08:15.238Z,10.98
2023-05-16T18:11:13.165Z,12.45
2023-05-16T18:14:14.568Z,11.15
2023-05-16T18:17:13.891Z,12.00
2023-05-16T18:20:12.665Z,10.48
2023-05-16T18:23:10.758Z,12.00
2023-05-16T18:26:10.765Z,10.90
2023-05-16T18:29:11.244Z,9.05
2023-05-16T18:32:10.250Z,9.88
2023-05-16T18:35:08.695Z,17.67
2023-05-16T18:38:09.072Z,19.25
2023-05-16T18:41:10.478Z,20.02
2023-05-16T18:44:08.568Z,25.42
2023-05-16T18:47:06.823Z,24.40
2023-05-16T18:50:05.392Z,22.40
2023-05-16T18:53:03.468Z,16.83
2023-05-16T18:56:02.079Z,20.15
2023-05-16T18:59:00.664Z,25.27
2023-05-16T19:01:58.814Z,15.85
2023-05-16T19:04:58.867Z,18.35
2023-05-16T19:07:58.675Z,19.40
2023-05-16T19:10:57.348Z,18.05
2023-05-16T19:13:56.426Z,20.35
2023-05-16T19:16:54.333Z,18.98
2023-05-16T19:19:52.936Z,16.05
2023-05-16T19:22:51.055Z,15.73
2023-05-16T19:25:49.850Z,15.00
2023-05-16T19:28:47.737Z,17.30
2023-05-16T19:31:45.737Z,11.73
2023-05-16T19:34:44.213Z,13.77
2023-05-16T19:37:42.321Z,13.23
2023-05-16T19:40:40.335Z,11.63
2023-05-16T19:43:38.440Z,12.23
2023-05-16T19:46:36.370Z,12.60
2023-05-16T19:49:34.460Z,14.25
2023-05-16T19:52:32.377Z,11.50
2023-05-16T19:55:32.011Z,13.02
2023-05-16T19:58:30.227Z,15.70
2023-05-16T20:01:28.254Z,11.60
2023-05-16T20:04:26.988Z,15.27
2023-05-16T20:07:25.104Z,17.95
2023-05-16T20:10:23.044Z,18.48
2023-05-16T20:13:21.689Z,13.13
2023-05-16T20:16:21.083Z,15.20
2023-05-16T20:19:19.861Z,12.57
2023-05-16T20:22:17.874Z,15.23
2023-05-16T20:25:15.902Z,11.80
2023-05-16T20:28:13.783Z,12.23
2023-05-16T20:31:11.782Z,17.67
2023-05-16T20:34:09.937Z,11.52
2023-05-16T20:37:08.030Z,10.68
2023-05-16T20:40:06.748Z,19.17
2023-05-16T20:43:04.763Z,10.90
2023-05-16T20:46:02.661Z,12.15
2023-05-16T20:49:00.635Z,15.00
2023-05-16T20:51:58.581Z,15.07
2023-05-16T20:54:58.927Z,12.30
2023-05-16T20:57:57.267Z,19.35
2023-05-16T21:00:55.229Z,17.33
2023-05-16T21:03:53.152Z,15.40
2023-05-16T21:06:51.279Z,13.60
2023-05-16T21:09:49.213Z,16.45
2023-05-16T21:12:47.338Z,13.77
2023-05-16T21:15:45.301Z,14.32
2023-05-16T21:18:43.502Z,12.63
2023-05-16T21:21:41.456Z,15.98
2023-05-16T21:24:39.498Z,13.45
2023-05-16T21:27:37.585Z,13.23
2023-05-16T21:30:35.530Z,12.68
2023-05-16T21:33:33.378Z,12.38
2023-05-16T21:36:31.910Z,17.00
2023-05-16T21:39:29.771Z,12.65
2023-05-16T21:42:27.800Z,10.77
2023-05-16T21:45:25.791Z,9.38
2023-05-16T21:48:24.044Z,10.13
2023-05-16T21:51:21.979Z,11.98
2023-05-16T21:54:19.921Z,14.45
2023-05-16T21:57:18.084Z,15.27
2023-05-16T22:00:16.763Z,15.30
2023-05-16T22:03:14.790Z,13.35
2023-05-16T22:06:12.769Z,11.65
2023-05-16T22:09:12.253Z,12.10
2023-05-16T22:12:10.700Z,11.52
2023-05-16T22:15:08.978Z,13.05
2023-05-16T22:18:07.103Z,15.30
2023-05-16T22:21:05.111Z,15.05
2023-05-16T22:24:03.069Z,17.48
2023-05-16T22:27:00.910Z,15.27
2023-05-16T22:29:58.877Z,11.98
2023-05-16T22:32:57.608Z,13.80
2023-05-16T22:35:55.834Z,12.20
2023-05-16T22:38:53.714Z,12.95
2023-05-16T22:41:52.213Z,15.05
2023-05-16T22:44:50.074Z,11.05
2023-05-16T22:47:48.156Z,12.95
2023-05-16T22:50:46.037Z,13.35
2023-05-16T22:53:44.021Z,12.25
2023-05-16T22:56:41.976Z,12.73
2023-05-16T22:59:39.988Z,12.20
2023-05-16T23:02:38.011Z,16.30
2023-05-16T23:05:36.453Z,8.90
2023-05-16T23:08:34.321Z,14.70
2023-05-16T23:11:33.809Z,14.93
2023-05-16T23:14:31.727Z,15.50
2023-05-16T23:17:29.714Z,12.63
2023-05-16T23:20:27.606Z,13.80
2023-05-16T23:23:25.606Z,13.32
2023-05-16T23:26:23.501Z,11.75
2023-05-16T23:29:21.598Z,11.50
2023-05-16T23:32:19.550Z,11.85
2023-05-16T23:35:17.574Z,15.18
2023-05-16T23:38:15.425Z,13.90
2023-05-16T23:41:13.416Z,13.63
2023-05-16T23:44:11.256Z,13.27
2023-05-16T23:47:10.040Z,10.52
2023-05-16T23:50:08.275Z,15.85
2023-05-16T23:53:06.273Z,11.32
2023-05-16T23:56:04.279Z,14.00
2023-05-16T23:59:02.217Z,16.15
